Terminal Aerodrome Forecast
Issued by NWS

Home | Current Version | Previous Version | Text Only | Print | Product List | Glossary On
Versions: 1 2 3 4 5 6 7 8 9 10 11 12 13 14 15 16 17 18 19 20 21
000
FTUS43 KAPX 011217 AAA
TAFMBL
TAF AMD
KMBL 011217Z 0112/0212 00000KT 4SM -SHSN OVC025 WS015/21025KT
      TEMPO 0112/0114 1SM -SHSN OVC015
     FM011400 24005KT P6SM BKN025 OVC035
     FM011800 23010KT P6SM SCT028 BKN035
     FM020200 28010G18KT P6SM VCSH BKN025 OVC040
     FM021000 29008G16KT P6SM SCT035
      AMD LTD TO CLD VIS AND WIND=

USA.gov is the U.S. government's official web portal to all federal, state and local government web resources and services.